sensor_id;sensor_type;location;lat;lon;timestamp;pressure;altitude;pressure_sealevel;temperature;humidity
81897;BME280;71360;43.506;1.500;2023-11-19T00:02:13;99650.56;;;10.61;70.35
81897;BME280;71360;43.506;1.500;2023-11-19T00:04:38;99651.78;;;10.54;70.73
81897;BME280;71360;43.506;1.500;2023-11-19T00:07:07;99648.44;;;10.49;70.35
81897;BME280;71360;43.506;1.500;2023-11-19T00:09:36;99646.03;;;10.43;70.71
81897;BME280;71360;43.506;1.500;2023-11-19T00:12:06;99639.22;;;10.36;70.56
81897;BME280;71360;43.506;1.500;2023-11-19T00:14:33;99638.50;;;10.30;71.17
81897;BME280;71360;43.506;1.500;2023-11-19T00:16:59;99641.31;;;10.27;71.47
81897;BME280;71360;43.506;1.500;2023-11-19T00:19:25;99644.91;;;10.26;71.60
81897;BME280;71360;43.506;1.500;2023-11-19T00:21:51;99642.44;;;10.22;71.96
81897;BME280;71360;43.506;1.500;2023-11-19T00:24:17;99634.44;;;10.22;71.79
81897;BME280;71360;43.506;1.500;2023-11-19T00:26:43;99640.72;;;10.21;72.17
81897;BME280;71360;43.506;1.500;2023-11-19T00:29:08;99637.19;;;10.20;72.34
81897;BME280;71360;43.506;1.500;2023-11-19T00:31:34;99633.63;;;10.20;72.23
81897;BME280;71360;43.506;1.500;2023-11-19T00:33:59;99638.09;;;10.19;72.41
81897;BME280;71360;43.506;1.500;2023-11-19T00:36:25;99639.91;;;10.19;72.51
81897;BME280;71360;43.506;1.500;2023-11-19T00:38:51;99624.81;;;10.18;72.60
81897;BME280;71360;43.506;1.500;2023-11-19T00:41:18;99631.91;;;10.19;72.98
81897;BME280;71360;43.506;1.500;2023-11-19T00:43:43;99628.28;;;10.20;73.11
81897;BME280;71360;43.506;1.500;2023-11-19T00:46:09;99627.41;;;10.19;73.02
81897;BME280;71360;43.506;1.500;2023-11-19T00:48:36;99615.81;;;10.20;73.10
81897;BME280;71360;43.506;1.500;2023-11-19T00:51:01;99613.13;;;10.20;73.43
81897;BME280;71360;43.506;1.500;2023-11-19T00:53:27;99614.84;;;10.21;73.28
81897;BME280;71360;43.506;1.500;2023-11-19T00:55:53;99613.13;;;10.20;73.89
81897;BME280;71360;43.506;1.500;2023-11-19T00:58:18;99619.41;;;10.19;73.75
81897;BME280;71360;43.506;1.500;2023-11-19T01:00:43;99618.59;;;10.17;74.07
81897;BME280;71360;43.506;1.500;2023-11-19T01:03:10;99613.38;;;10.14;74.11
81897;BME280;71360;43.506;1.500;2023-11-19T01:05:36;99613.38;;;10.14;74.61
81897;BME280;71360;43.506;1.500;2023-11-19T01:08:02;99606.38;;;10.11;74.00
81897;BME280;71360;43.506;1.500;2023-11-19T01:10:30;99608.25;;;10.09;74.23
81897;BME280;71360;43.506;1.500;2023-11-19T01:12:55;99610.94;;;10.09;74.31
81897;BME280;71360;43.506;1.500;2023-11-19T01:15:21;99611.06;;;10.06;73.94
81897;BME280;71360;43.506;1.500;2023-11-19T01:17:46;99619.19;;;10.03;73.95
81897;BME280;71360;43.506;1.500;2023-11-19T01:20:12;99622.06;;;9.99;73.99
81897;BME280;71360;43.506;1.500;2023-11-19T01:22:39;99611.38;;;9.99;73.95
81897;BME280;71360;43.506;1.500;2023-11-19T01:25:05;99620.38;;;9.96;74.19
81897;BME280;71360;43.506;1.500;2023-11-19T01:27:31;99623.13;;;9.94;74.47
81897;BME280;71360;43.506;1.500;2023-11-19T01:29:56;99618.63;;;9.95;74.58
81897;BME280;71360;43.506;1.500;2023-11-19T01:32:22;99628.47;;;9.94;74.49
81897;BME280;71360;43.506;1.500;2023-11-19T01:34:49;99636.41;;;9.96;74.56
81897;BME280;71360;43.506;1.500;2023-11-19T01:37:15;99626.59;;;9.96;75.04
81897;BME280;71360;43.506;1.500;2023-11-19T01:39:43;99630.06;;;9.99;75.12
81897;BME280;71360;43.506;1.500;2023-11-19T01:42:09;99630.94;;;9.99;74.92
81897;BME280;71360;43.506;1.500;2023-11-19T01:44:34;99629.94;;;10.02;75.22
81897;BME280;71360;43.506;1.500;2023-11-19T01:47:00;99629.94;;;10.02;75.04
81897;BME280;71360;43.506;1.500;2023-11-19T01:49:26;99630.75;;;10.04;74.88
81897;BME280;71360;43.506;1.500;2023-11-19T01:51:51;99630.69;;;10.05;75.01
81897;BME280;71360;43.506;1.500;2023-11-19T01:54:17;99636.88;;;10.06;75.00
81897;BME280;71360;43.506;1.500;2023-11-19T01:56:43;99637.81;;;10.05;75.03
81897;BME280;71360;43.506;1.500;2023-11-19T01:59:10;99642.22;;;10.06;75.01
81897;BME280;71360;43.506;1.500;2023-11-19T02:01:36;99641.38;;;10.05;74.92
81897;BME280;71360;43.506;1.500;2023-11-19T02:04:06;99633.34;;;10.05;74.76
81897;BME280;71360;43.506;1.500;2023-11-19T02:06:33;99630.75;;;10.04;75.05
81897;BME280;71360;43.506;1.500;2023-11-19T02:09:00;99626.34;;;10.03;74.84
81897;BME280;71360;43.506;1.500;2023-11-19T02:11:26;99629.06;;;10.01;75.35
81897;BME280;71360;43.506;1.500;2023-11-19T02:13:55;99636.19;;;10.01;75.19
81897;BME280;71360;43.506;1.500;2023-11-19T02:16:21;99639.88;;;9.98;75.14
81897;BME280;71360;43.506;1.500;2023-11-19T02:18:47;99635.59;;;9.94;74.90
81897;BME280;71360;43.506;1.500;2023-11-19T02:21:13;99625.97;;;9.90;74.85
81897;BME280;71360;43.506;1.500;2023-11-19T02:23:40;99626.97;;;9.87;74.92
81897;BME280;71360;43.506;1.500;2023-11-19T02:26:26;99634.31;;;9.82;74.64
81897;BME280;71360;43.506;1.500;2023-11-19T02:28:53;99639.72;;;9.80;75.07
81897;BME280;71360;43.506;1.500;2023-11-19T02:31:19;99638.03;;;9.78;75.01
81897;BME280;71360;43.506;1.500;2023-11-19T02:33:45;99633.69;;;9.75;75.05
81897;BME280;71360;43.506;1.500;2023-11-19T02:36:11;99634.69;;;9.73;75.16
81897;BME280;71360;43.506;1.500;2023-11-19T02:38:37;99626.75;;;9.71;74.57
81897;BME280;71360;43.506;1.500;2023-11-19T02:41:06;99623.25;;;9.69;74.83
81897;BME280;71360;43.506;1.500;2023-11-19T02:43:33;99619.81;;;9.67;75.02
81897;BME280;71360;43.506;1.500;2023-11-19T02:46:03;99626.97;;;9.65;75.36
81897;BME280;71360;43.506;1.500;2023-11-19T02:48:34;99627.97;;;9.62;75.35
81897;BME280;71360;43.506;1.500;2023-11-19T02:51:03;99621.84;;;9.60;75.38
81897;BME280;71360;43.506;1.500;2023-11-19T02:53:32;99625.38;;;9.61;75.46
81897;BME280;71360;43.506;1.500;2023-11-19T02:55:57;99627.31;;;9.57;75.20
81897;BME280;71360;43.506;1.500;2023-11-19T02:58:31;99625.56;;;9.56;75.16
81897;BME280;71360;43.506;1.500;2023-11-19T03:00:57;99617.66;;;9.53;75.14
81897;BME280;71360;43.506;1.500;2023-11-19T03:03:26;99616.81;;;9.53;75.30
81897;BME280;71360;43.506;1.500;2023-11-19T03:06:04;99616.06;;;9.49;75.48
81897;BME280;71360;43.506;1.500;2023-11-19T03:08:30;99618.78;;;9.48;75.50
81897;BME280;71360;43.506;1.500;2023-11-19T03:10:55;99604.66;;;9.45;75.15
81897;BME280;71360;43.506;1.500;2023-11-19T03:13:21;99600.31;;;9.43;75.45
81897;BME280;71360;43.506;1.500;2023-11-19T03:15:47;99602.97;;;9.43;75.49
81897;BME280;71360;43.506;1.500;2023-11-19T03:18:13;99606.56;;;9.42;75.61
81897;BME280;71360;43.506;1.500;2023-11-19T03:20:38;99606.56;;;9.42;75.52
81897;BME280;71360;43.506;1.500;2023-11-19T03:23:04;99616.44;;;9.40;75.62
81897;BME280;71360;43.506;1.500;2023-11-19T03:25:29;99609.38;;;9.39;75.65
81897;BME280;71360;43.506;1.500;2023-11-19T03:27:59;99612.09;;;9.37;75.69
81897;BME280;71360;43.506;1.500;2023-11-19T03:30:26;99606.81;;;9.36;75.77
81897;BME280;71360;43.506;1.500;2023-11-19T03:32:52;99604.19;;;9.34;75.70
81897;BME280;71360;43.506;1.500;2023-11-19T03:35:17;99607.00;;;9.31;75.67
81897;BME280;71360;43.506;1.500;2023-11-19T03:37:43;99598.25;;;9.27;76.35
81897;BME280;71360;43.506;1.500;2023-11-19T03:40:09;99602.00;;;9.22;76.34
81897;BME280;71360;43.506;1.500;2023-11-19T03:42:35;99603.94;;;9.18;76.57
81897;BME280;71360;43.506;1.500;2023-11-19T03:45:00;99610.34;;;9.14;76.55
81897;BME280;71360;43.506;1.500;2023-11-19T03:47:26;99604.38;;;9.07;76.33
81897;BME280;71360;43.506;1.500;2023-11-19T03:49:52;99601.06;;;9.01;76.82
81897;BME280;71360;43.506;1.500;2023-11-19T03:52:18;99599.44;;;8.97;76.86
81897;BME280;71360;43.506;1.500;2023-11-19T03:54:44;99603.94;;;8.94;77.23
81897;BME280;71360;43.506;1.500;2023-11-19T03:57:11;99601.34;;;8.93;76.92
81897;BME280;71360;43.506;1.500;2023-11-19T03:59:37;99606.75;;;8.91;77.25
81897;BME280;71360;43.506;1.500;2023-11-19T04:02:02;99608.53;;;8.91;77.38
81897;BME280;71360;43.506;1.500;2023-11-19T04:04:28;99607.66;;;8.90;77.20
81897;BME280;71360;43.506;1.500;2023-11-19T04:06:57;99611.25;;;8.89;77.17
81897;BME280;71360;43.506;1.500;2023-11-19T04:09:23;99612.13;;;8.90;77.27
81897;BME280;71360;43.506;1.500;2023-11-19T04:11:49;99604.13;;;8.90;77.46
81897;BME280;71360;43.506;1.500;2023-11-19T04:14:15;99610.31;;;8.90;77.47
81897;BME280;71360;43.506;1.500;2023-11-19T04:16:43;99608.50;;;8.92;77.38
81897;BME280;71360;43.506;1.500;2023-11-19T04:19:08;99615.56;;;8.93;77.40
81897;BME280;71360;43.506;1.500;2023-11-19T04:21:34;99610.09;;;8.97;77.72
81897;BME280;71360;43.506;1.500;2023-11-19T04:23:59;99610.91;;;8.99;77.77
81897;BME280;71360;43.506;1.500;2023-11-19T04:26:24;99609.78;;;9.04;78.00
81897;BME280;71360;43.506;1.500;2023-11-19T04:28:50;99601.63;;;9.09;77.55
81897;BME280;71360;43.506;1.500;2023-11-19T04:31:15;99603.19;;;9.15;77.87
81897;BME280;71360;43.506;1.500;2023-11-19T04:33:42;99613.66;;;9.19;78.12
81897;BME280;71360;43.506;1.500;2023-11-19T04:36:08;99607.31;;;9.23;78.06
81897;BME280;71360;43.506;1.500;2023-11-19T04:38:34;99615.19;;;9.26;78.10
81897;BME280;71360;43.506;1.500;2023-11-19T04:41:00;99605.31;;;9.28;77.49
81897;BME280;71360;43.506;1.500;2023-11-19T04:43:25;99616.81;;;9.31;77.39
81897;BME280;71360;43.506;1.500;2023-11-19T04:45:51;99623.00;;;9.31;77.64
81897;BME280;71360;43.506;1.500;2023-11-19T04:48:16;99613.22;;;9.32;77.88
81897;BME280;71360;43.506;1.500;2023-11-19T04:50:41;99611.34;;;9.34;77.53
81897;BME280;71360;43.506;1.500;2023-11-19T04:53:07;99606.00;;;9.34;77.40
81897;BME280;71360;43.506;1.500;2023-11-19T04:55:32;99606.00;;;9.34;77.44
81897;BME280;71360;43.506;1.500;2023-11-19T04:57:57;99606.06;;;9.32;77.32
81897;BME280;71360;43.506;1.500;2023-11-19T05:00:23;99610.47;;;9.33;77.68
81897;BME280;71360;43.506;1.500;2023-11-19T05:02:48;99613.22;;;9.32;77.44
81897;BME280;71360;43.506;1.500;2023-11-19T05:05:15;99614.94;;;9.33;77.49
81897;BME280;71360;43.506;1.500;2023-11-19T05:07:41;99606.84;;;9.34;77.60
81897;BME280;71360;43.506;1.500;2023-11-19T05:10:06;99617.44;;;9.37;77.55
81897;BME280;71360;43.506;1.500;2023-11-19T05:12:32;99606.69;;;9.39;77.87
81897;BME280;71360;43.506;1.500;2023-11-19T05:14:57;99606.63;;;9.40;77.52
81897;BME280;71360;43.506;1.500;2023-11-19T05:17:23;99610.97;;;9.43;77.86
81897;BME280;71360;43.506;1.500;2023-11-19T05:19:49;99613.56;;;9.44;77.75
81897;BME280;71360;43.506;1.500;2023-11-19T05:22:14;99619.69;;;9.48;77.23
81897;BME280;71360;43.506;1.500;2023-11-19T05:24:40;99613.38;;;9.49;77.67
81897;BME280;71360;43.506;1.500;2023-11-19T05:27:06;99604.38;;;9.52;77.87
81897;BME280;71360;43.506;1.500;2023-11-19T05:29:33;99617.63;;;9.55;78.04
81897;BME280;71360;43.506;1.500;2023-11-19T05:31:58;99613.97;;;9.57;77.50
81897;BME280;71360;43.506;1.500;2023-11-19T05:34:24;99618.28;;;9.60;77.68
81897;BME280;71360;43.506;1.500;2023-11-19T05:36:50;99620.03;;;9.61;77.57
81897;BME280;71360;43.506;1.500;2023-11-19T05:39:16;99623.63;;;9.60;77.71
81897;BME280;71360;43.506;1.500;2023-11-19T05:41:42;99622.75;;;9.59;77.51
81897;BME280;71360;43.506;1.500;2023-11-19T05:44:08;99615.81;;;9.55;77.32
81897;BME280;71360;43.506;1.500;2023-11-19T05:46:33;99629.16;;;9.55;77.16
81897;BME280;71360;43.506;1.500;2023-11-19T05:48:58;99622.16;;;9.53;77.00
81897;BME280;71360;43.506;1.500;2023-11-19T05:51:24;99621.28;;;9.52;77.25
81897;BME280;71360;43.506;1.500;2023-11-19T05:53:50;99622.28;;;9.50;76.97
81897;BME280;71360;43.506;1.500;2023-11-19T05:56:15;99622.34;;;9.48;76.59
81897;BME280;71360;43.506;1.500;2023-11-19T05:58:46;99614.44;;;9.45;77.11
81897;BME280;71360;43.506;1.500;2023-11-19T06:01:13;99615.47;;;9.42;76.81
81897;BME280;71360;43.506;1.500;2023-11-19T06:03:38;99616.47;;;9.38;77.25
81897;BME280;71360;43.506;1.500;2023-11-19T06:06:04;99617.53;;;9.34;77.24
81897;BME280;71360;43.506;1.500;2023-11-19T06:08:30;99620.25;;;9.33;77.36
81897;BME280;71360;43.506;1.500;2023-11-19T06:10:56;99616.81;;;9.31;77.40
81897;BME280;71360;43.506;1.500;2023-11-19T06:13:22;99618.56;;;9.30;77.64
81897;BME280;71360;43.506;1.500;2023-11-19T06:15:47;99609.59;;;9.33;77.52
81897;BME280;71360;43.506;1.500;2023-11-19T06:18:13;99622.84;;;9.36;77.78
81897;BME280;71360;43.506;1.500;2023-11-19T06:20:40;99626.22;;;9.39;77.57
81897;BME280;71360;43.506;1.500;2023-11-19T06:23:05;99622.50;;;9.43;77.45
81897;BME280;71360;43.506;1.500;2023-11-19T06:25:32;99630.34;;;9.48;77.80
81897;BME280;71360;43.506;1.500;2023-11-19T06:27:57;99631.06;;;9.52;77.63
81897;BME280;71360;43.506;1.500;2023-11-19T06:30:23;99630.97;;;9.55;77.74
81897;BME280;71360;43.506;1.500;2023-11-19T06:32:48;99638.78;;;9.59;77.45
81897;BME280;71360;43.506;1.500;2023-11-19T06:35:14;99638.66;;;9.62;77.36
81897;BME280;71360;43.506;1.500;2023-11-19T06:37:40;99642.94;;;9.67;77.69
81897;BME280;71360;43.506;1.500;2023-11-19T06:40:07;99647.28;;;9.69;77.52
81897;BME280;71360;43.506;1.500;2023-11-19T06:42:34;99646.34;;;9.70;77.79
81897;BME280;71360;43.506;1.500;2023-11-19T06:45:00;99645.59;;;9.67;77.20
81897;BME280;71360;43.506;1.500;2023-11-19T06:47:28;99651.06;;;9.63;77.23
81897;BME280;71360;43.506;1.500;2023-11-19T06:49:54;99659.34;;;9.57;77.08
81897;BME280;71360;43.506;1.500;2023-11-19T06:52:20;99664.06;;;9.49;77.07
81897;BME280;71360;43.506;1.500;2023-11-19T06:54:45;99669.66;;;9.43;77.41
81897;BME280;71360;43.506;1.500;2023-11-19T06:57:11;99664.69;;;9.34;77.30
81897;BME280;71360;43.506;1.500;2023-11-19T06:59:37;99673.03;;;9.24;77.11
81897;BME280;71360;43.506;1.500;2023-11-19T07:02:03;99666.34;;;9.14;77.14
81897;BME280;71360;43.506;1.500;2023-11-19T07:04:30;99677.34;;;9.05;77.44
81897;BME280;71360;43.506;1.500;2023-11-19T07:06:55;99676.75;;;8.97;77.56
81897;BME280;71360;43.506;1.500;2023-11-19T07:09:21;99681.56;;;8.87;77.32
81897;BME280;71360;43.506;1.500;2023-11-19T07:11:46;99680.91;;;8.80;77.12
81897;BME280;71360;43.506;1.500;2023-11-19T07:14:12;99674.03;;;8.73;77.45
81897;BME280;71360;43.506;1.500;2023-11-19T07:16:37;99679.59;;;8.67;77.37
81897;BME280;71360;43.506;1.500;2023-11-19T07:19:04;99678.09;;;8.59;77.38
81897;BME280;71360;43.506;1.500;2023-11-19T07:21:31;99674.66;;;8.56;77.23
81897;BME280;71360;43.506;1.500;2023-11-19T07:23:57;99686.41;;;8.50;77.41
81897;BME280;71360;43.506;1.500;2023-11-19T07:26:23;99687.47;;;8.44;77.07
81897;BME280;71360;43.506;1.500;2023-11-19T07:28:49;99692.06;;;8.39;77.34
81897;BME280;71360;43.506;1.500;2023-11-19T07:31:15;99694.13;;;8.31;77.11
81897;BME280;71360;43.506;1.500;2023-11-19T07:33:40;99689.00;;;8.25;77.18
81897;BME280;71360;43.506;1.500;2023-11-19T07:36:08;99690.84;;;8.23;77.58
81897;BME280;71360;43.506;1.500;2023-11-19T07:38:34;99691.00;;;8.18;77.11
81897;BME280;71360;43.506;1.500;2023-11-19T07:41:00;99695.50;;;8.16;77.36
81897;BME280;71360;43.506;1.500;2023-11-19T07:43:26;99692.03;;;8.14;77.69
81897;BME280;71360;43.506;1.500;2023-11-19T07:45:51;99682.25;;;8.15;77.78
81897;BME280;71360;43.506;1.500;2023-11-19T07:48:17;99695.59;;;8.13;77.77
81897;BME280;71360;43.506;1.500;2023-11-19T07:50:48;99695.50;;;8.16;78.00
81897;BME280;71360;43.506;1.500;2023-11-19T07:53:15;99701.59;;;8.20;78.37
81897;BME280;71360;43.506;1.500;2023-11-19T07:55:41;99706.78;;;8.24;78.47
81897;BME280;71360;43.506;1.500;2023-11-19T07:58:06;99706.50;;;8.32;79.01
81897;BME280;71360;43.506;1.500;2023-11-19T08:00:32;99707.16;;;8.39;79.08
81897;BME280;71360;43.506;1.500;2023-11-19T08:02:57;99707.78;;;8.49;79.09
81897;BME280;71360;43.506;1.500;2023-11-19T08:05:23;99704.81;;;8.56;79.17
81897;BME280;71360;43.506;1.500;2023-11-19T08:07:50;99705.44;;;8.65;79.07
81897;BME280;71360;43.506;1.500;2023-11-19T08:10:16;99711.34;;;8.73;79.34
81897;BME280;71360;43.506;1.500;2023-11-19T08:12:41;99705.69;;;8.82;78.76
81897;BME280;71360;43.506;1.500;2023-11-19T08:15:07;99705.38;;;8.91;79.12
81897;BME280;71360;43.506;1.500;2023-11-19T08:17:33;99714.81;;;9.00;79.39
81897;BME280;71360;43.506;1.500;2023-11-19T08:19:58;99723.38;;;9.10;79.38
81897;BME280;71360;43.506;1.500;2023-11-19T08:22:25;99731.00;;;9.19;79.12
81897;BME280;71360;43.506;1.500;2023-11-19T08:24:50;99720.00;;;9.28;79.18
81897;BME280;71360;43.506;1.500;2023-11-19T08:27:16;99721.41;;;9.39;78.83
81897;BME280;71360;43.506;1.500;2023-11-19T08:29:41;99725.44;;;9.49;78.97
81897;BME280;71360;43.506;1.500;2023-11-19T08:32:07;99729.50;;;9.59;78.78
81897;BME280;71360;43.506;1.500;2023-11-19T08:34:32;99728.25;;;9.70;78.96
81897;BME280;71360;43.506;1.500;2023-11-19T08:36:59;99723.34;;;9.81;79.19
81897;BME280;71360;43.506;1.500;2023-11-19T08:39:24;99722.91;;;9.92;79.13
81897;BME280;71360;43.506;1.500;2023-11-19T08:41:50;99725.09;;;10.04;78.97
81897;BME280;71360;43.506;1.500;2023-11-19T08:44:16;99722.81;;;10.16;78.94
81897;BME280;71360;43.506;1.500;2023-11-19T08:46:48;99732.97;;;10.29;78.82
81897;BME280;71360;43.506;1.500;2023-11-19T08:49:14;99728.94;;;10.41;78.64
81897;BME280;71360;43.506;1.500;2023-11-19T08:51:40;99736.38;;;10.55;78.46
81897;BME280;71360;43.506;1.500;2023-11-19T08:54:06;99736.72;;;10.68;78.64
81897;BME280;71360;43.506;1.500;2023-11-19T08:56:32;99736.09;;;10.82;78.38
81897;BME280;71360;43.506;1.500;2023-11-19T08:58:59;99734.63;;;10.95;78.51
81897;BME280;71360;43.506;1.500;2023-11-19T09:01:25;99739.44;;;11.08;78.39
81897;BME280;71360;43.506;1.500;2023-11-19T09:03:51;99742.50;;;11.19;78.16
81897;BME280;71360;43.506;1.500;2023-11-19T09:06:17;99727.78;;;11.29;77.98
81897;BME280;71360;43.506;1.500;2023-11-19T09:08:43;99728.13;;;11.41;77.69
81897;BME280;71360;43.506;1.500;2023-11-19T09:11:08;99725.84;;;11.52;77.61
81897;BME280;71360;43.506;1.500;2023-11-19T09:13:37;99731.56;;;11.63;77.58
81897;BME280;71360;43.506;1.500;2023-11-19T09:16:02;99730.97;;;11.76;77.45
81897;BME280;71360;43.506;1.500;2023-11-19T09:18:31;99727.78;;;11.87;77.01
81897;BME280;71360;43.506;1.500;2023-11-19T09:20:57;99735.34;;;11.97;77.03
81897;BME280;71360;43.506;1.500;2023-11-19T09:23:23;99733.16;;;12.06;77.12
81897;BME280;71360;43.506;1.500;2023-11-19T09:25:50;99734.44;;;12.16;77.14
81897;BME280;71360;43.506;1.500;2023-11-19T09:28:16;99738.53;;;12.23;76.47
81897;BME280;71360;43.506;1.500;2023-11-19T09:30:41;99733.66;;;12.31;76.44
81897;BME280;71360;43.506;1.500;2023-11-19T09:33:07;99739.44;;;12.41;76.63
81897;BME280;71360;43.506;1.500;2023-11-19T09:35:33;99726.50;;;12.49;76.53
81897;BME280;71360;43.506;1.500;2023-11-19T09:37:58;99720.69;;;12.59;76.36
81897;BME280;71360;43.506;1.500;2023-11-19T09:40:24;99729.19;;;12.67;76.20
81897;BME280;71360;43.506;1.500;2023-11-19T09:42:50;99726.91;;;12.77;75.84
81897;BME280;71360;43.506;1.500;2023-11-19T09:45:16;99730.84;;;12.87;75.96
81897;BME280;71360;43.506;1.500;2023-11-19T09:47:44;99725.78;;;12.98;75.60
81897;BME280;71360;43.506;1.500;2023-11-19T09:50:17;99729.91;;;13.06;75.33
81897;BME280;71360;43.506;1.500;2023-11-19T09:52:46;99733.88;;;13.14;74.98
81897;BME280;71360;43.506;1.500;2023-11-19T09:55:12;99734.44;;;13.21;74.72
81897;BME280;71360;43.506;1.500;2023-11-19T09:57:41;99743.03;;;13.28;74.59
81897;BME280;71360;43.506;1.500;2023-11-19T10:00:10;99730.22;;;13.33;74.51
81897;BME280;71360;43.506;1.500;2023-11-19T10:02:36;99736.31;;;13.37;74.58
81897;BME280;71360;43.506;1.500;2023-11-19T10:05:05;99735.13;;;13.42;74.17
81897;BME280;71360;43.506;1.500;2023-11-19T10:07:32;99723.28;;;13.46;73.93
81897;BME280;71360;43.506;1.500;2023-11-19T10:10:02;99733.66;;;13.53;73.76
81897;BME280;71360;43.506;1.500;2023-11-19T10:12:30;99736.13;;;13.57;73.58
81897;BME280;71360;43.506;1.500;2023-11-19T10:14:57;99726.75;;;13.64;73.77
81897;BME280;71360;43.506;1.500;2023-11-19T10:17:33;99730.06;;;13.70;73.63
81897;BME280;71360;43.506;1.500;2023-11-19T10:19:59;99726.94;;;13.77;73.81
81897;BME280;71360;43.506;1.500;2023-11-19T10:22:25;99721.13;;;13.85;73.57
81897;BME280;71360;43.506;1.500;2023-11-19T10:24:52;99715.34;;;13.93;73.75
81897;BME280;71360;43.506;1.500;2023-11-19T10:27:17;99712.19;;;14.00;73.84
81897;BME280;71360;43.506;1.500;2023-11-19T10:29:47;99710.81;;;14.09;73.18
81897;BME280;71360;43.506;1.500;2023-11-19T10:32:13;99708.53;;;14.17;73.03
81897;BME280;71360;43.506;1.500;2023-11-19T10:34:40;99706.38;;;14.24;73.18
81897;BME280;71360;43.506;1.500;2023-11-19T10:37:06;99704.84;;;14.34;73.14
81897;BME280;71360;43.506;1.500;2023-11-19T10:39:51;99705.19;;;14.44;72.86
81897;BME280;71360;43.506;1.500;2023-11-19T10:42:17;99703.69;;;14.55;72.69
81897;BME280;71360;43.506;1.500;2023-11-19T10:44:42;99696.97;;;14.62;72.66
81897;BME280;71360;43.506;1.500;2023-11-19T10:47:08;99686.66;;;14.70;72.26
81897;BME280;71360;43.506;1.500;2023-11-19T10:49:35;99691.56;;;14.78;72.40
81897;BME280;71360;43.506;1.500;2023-11-19T10:52:01;99692.75;;;14.88;72.31
81897;BME280;71360;43.506;1.500;2023-11-19T10:54:29;99682.38;;;14.96;71.78
81897;BME280;71360;43.506;1.500;2023-11-19T10:56:58;99679.13;;;15.06;71.66
81897;BME280;71360;43.506;1.500;2023-11-19T10:59:28;99675.06;;;15.13;71.22
81897;BME280;71360;43.506;1.500;2023-11-19T11:01:56;99681.69;;;15.22;71.03
81897;BME280;71360;43.506;1.500;2023-11-19T11:04:25;99679.47;;;15.28;70.69
81897;BME280;71360;43.506;1.500;2023-11-19T11:06:54;99677.38;;;15.33;70.81
81897;BME280;71360;43.506;1.500;2023-11-19T11:09:20;99669.88;;;15.39;70.23
81897;BME280;71360;43.506;1.500;2023-11-19T11:11:47;99670.34;;;15.45;70.37
81897;BME280;71360;43.506;1.500;2023-11-19T11:14:13;99665.53;;;15.50;70.19
81897;BME280;71360;43.506;1.500;2023-11-19T11:16:43;99660.63;;;15.57;70.27
81897;BME280;71360;43.506;1.500;2023-11-19T11:19:10;99659.25;;;15.64;70.17
81897;BME280;71360;43.506;1.500;2023-11-19T11:21:38;99660.66;;;15.70;69.71
81897;BME280;71360;43.506;1.500;2023-11-19T11:27:33;99644.00;;;15.78;69.02
81897;BME280;71360;43.506;1.500;2023-11-19T11:33:26;99644.88;;;15.93;69.71
81897;BME280;71360;43.506;1.500;2023-11-19T11:38:35;99651.53;;;16.14;69.08
81897;BME280;71360;43.506;1.500;2023-11-19T11:41:22;99645.59;;;16.22;68.90
81897;BME280;71360;43.506;1.500;2023-11-19T11:43:50;99631.47;;;16.31;68.97
81897;BME280;71360;43.506;1.500;2023-11-19T11:49:07;99632.16;;;16.48;68.32
81897;BME280;71360;43.506;1.500;2023-11-19T11:54:14;99625.16;;;16.58;67.91
81897;BME280;71360;43.506;1.500;2023-11-19T11:59:47;99613.41;;;16.72;67.60
81897;BME280;71360;43.506;1.500;2023-11-19T12:02:21;99598.59;;;16.78;67.76
81897;BME280;71360;43.506;1.500;2023-11-19T12:04:49;99606.28;;;16.84;67.76
81897;BME280;71360;43.506;1.500;2023-11-19T12:07:20;99593.97;;;16.93;67.82
81897;BME280;71360;43.506;1.500;2023-11-19T12:09:48;99598.84;;;17.00;67.76
81897;BME280;71360;43.506;1.500;2023-11-19T12:17:49;99589.09;;;17.24;66.94
81897;BME280;71360;43.506;1.500;2023-11-19T12:20:16;99584.75;;;17.34;66.81
81897;BME280;71360;43.506;1.500;2023-11-19T12:22:42;99591.19;;;17.44;66.23
81897;BME280;71360;43.506;1.500;2023-11-19T12:25:10;99593.34;;;17.52;65.96
81897;BME280;71360;43.506;1.500;2023-11-19T12:27:40;99585.84;;;17.55;65.43
81897;BME280;71360;43.506;1.500;2023-11-19T12:30:06;99591.03;;;17.59;65.02
81897;BME280;71360;43.506;1.500;2023-11-19T12:32:42;99590.81;;;17.62;65.29
81897;BME280;71360;43.506;1.500;2023-11-19T12:35:09;99588.50;;;17.68;65.33
81897;BME280;71360;43.506;1.500;2023-11-19T12:40:16;99572.81;;;17.74;64.62
81897;BME280;71360;43.506;1.500;2023-11-19T12:42:48;99577.88;;;17.78;64.54
81897;BME280;71360;43.506;1.500;2023-11-19T12:45:14;99574.91;;;17.81;64.27
81897;BME280;71360;43.506;1.500;2023-11-19T12:47:40;99571.88;;;17.86;64.76
81897;BME280;71360;43.506;1.500;2023-11-19T12:50:07;99565.19;;;17.92;64.54
81897;BME280;71360;43.506;1.500;2023-11-19T12:52:34;99566.44;;;17.99;64.18
81897;BME280;71360;43.506;1.500;2023-11-19T12:55:00;99569.53;;;18.05;64.05
81897;BME280;71360;43.506;1.500;2023-11-19T12:57:39;99563.53;;;18.13;64.28
81897;BME280;71360;43.506;1.500;2023-11-19T13:00:05;99555.69;;;18.21;63.75
81897;BME280;71360;43.506;1.500;2023-11-19T13:02:45;99558.91;;;18.27;63.55
81897;BME280;71360;43.506;1.500;2023-11-19T13:05:32;99554.09;;;18.30;63.44
81897;BME280;71360;43.506;1.500;2023-11-19T13:08:06;99547.59;;;18.33;62.87
81897;BME280;71360;43.506;1.500;2023-11-19T13:10:54;99558.69;;;18.41;63.09
81897;BME280;71360;43.506;1.500;2023-11-19T13:13:19;99544.94;;;18.44;62.83
81897;BME280;71360;43.506;1.500;2023-11-19T13:15:45;99543.56;;;18.50;62.72
81897;BME280;71360;43.506;1.500;2023-11-19T13:18:11;99538.53;;;18.56;62.13
81897;BME280;71360;43.506;1.500;2023-11-19T13:20:37;99541.72;;;18.62;62.37
81897;BME280;71360;43.506;1.500;2023-11-19T13:23:05;99542.09;;;18.68;62.13
81897;BME280;71360;43.506;1.500;2023-11-19T13:25:31;99537.94;;;18.76;62.01
81897;BME280;71360;43.506;1.500;2023-11-19T13:27:57;99533.75;;;18.83;61.90
81897;BME280;71360;43.506;1.500;2023-11-19T13:30:23;99537.72;;;18.90;61.97